Terminal Aerodrome Forecast
Issued by NWS Wilmington, OH

Current Version | Previous Version | Text Only | Print | Product List | Glossary On
Versions: 1 2 3 4 5 6 7 8 9 10 11 12 13 14 15 16 17 18 19 20 21 22 23 24 25 26
000 FTUS41 KILN 061135 TAFILN TAF KILN 061135Z 0612/0712 21008KT P6SM OVC100 FM061500 24008KT P6SM VCSH OVC050 FM061800 33010KT P6SM OVC025 FM062200 36010KT P6SM SCT025 FM070000 02006KT P6SM SCT250=

USA.gov is the U.S. government's official web portal to all federal, state and local government web resources and services.